East Craftsbury, Vermont
Current Conditions -  °F | °C
As of 5:54 AM on Friday 19 Dec 2014 (Local Time) from KMVL Reporting Station
Overcast Overcast  
Wind Chill: 18°   Ceiling: 1200
Heat Index: 25°   Visibility: 9mi
Dew Point: 21°   Wind: 6mph
Humidity: 85%   Direction: 340°NNW
Pressure: 29.94"   Gusts: NA
Location:  44.6462°N, 72.3558°W
Report Text: KMVL 191054Z AUTO 34005KT 9SM OVC012 M04/M06 A2994 RMK AO2 SLP149 T10391061 TSNO
Loading
Personal Weather Stations






























Interactive Weather Map New forecast layout! Learn more

10-Day Weather Forecast

Advertisements
Track Severe Weather on mobile